Flight Track Log - Related Links

Times and Time Zones

All times are in EDT time to prevent confusion due to time zone crossing. See the SWA2130 flight status page for this flight to view local times or setup timezone preferences in your user account.

Time Position Orientation Groundspeed Altitude Reporting Facility
EDT Latitude Longitude Course Direction KTS MPH feet Rate Location/Type
08:50PM 33.9500 -118.4500 250° West 148 170 1,800  Level Southern California TRACON
08:50PM 33.9450 -118.4664 250° West 166 191 2,200 2,571 Climbing Los Angeles Center
08:51PM 33.9369 -118.5486 263° West 253 291 5,100 3,532 Climbing Los Angeles Center
08:52PM 33.8611 -118.5636 189° South 282 325 9,500 3,581 Climbing Los Angeles Center
08:53PM 33.7769 -118.5417 168° South 324 373 12,500 2,226 Climbing Los Angeles Center
08:54PM 33.6925 -118.4961 156° South 347 399 14,100 2,468 Climbing Los Angeles Center
08:55PM 33.6572 -118.3903 112° Southeast 350 403 17,600 3,435 Climbing Los Angeles Center
08:56PM 33.6361 -118.2469 100° East 375 432 21,200 3,097 Climbing Los Angeles Center
08:58PM 33.6256 -118.1192 96° East 388 447 24,000 2,516 Climbing Los Angeles Center
08:59PM 33.6142 -117.9850 96° East 405 466 26,400 2,177 Climbing Los Angeles Center
09:00PM 33.6017 -117.8436 96° East 424 488 28,500 2,129 Climbing Los Angeles Center
09:01PM 33.5861 -117.6675 96° East 443 510 30,800 1,887 Climbing Los Angeles Center
09:02PM 33.5725 -117.5142 96° East 460 529 32,400 1,742 Climbing Los Angeles Center
09:03PM 33.5589 -117.3583 96° East 470 541 34,400 1,839 Climbing Los Angeles Center
09:04PM 33.5447 -117.2036 96° East 469 540 36,200 1,548 Climbing Los Angeles Center
09:05PM 33.5297 -117.0539 97° East 468 539 37,600 1,161 Climbing Los Angeles Center
09:06PM 33.5164 -116.8956 96° East 474 545 38,600 1,065 Climbing Los Angeles Center
09:07PM 33.4967 -116.7028 97° East 482 555 39,800 1,161 Climbing Los Angeles Center
09:08PM 33.4822 -116.5403 96° East 487 560 41,000 581 Climbing Los Angeles Center
09:09PM 33.4653 -116.3803 97° East 484 557 41,000  Level Los Angeles Center
09:10PM 33.4506 -116.2222 96° East 478 550 41,000  Level Los Angeles Center
09:11PM 33.4328 -116.0619 98° East 482 555 41,000  Level Los Angeles Center
09:12PM 33.4175 -115.9033 97° East 479 551 41,000  Level Los Angeles Center
09:13PM 33.4014 -115.7458 97° East 477 549 41,000  Level Los Angeles Center
09:14PM 33.3839 -115.5897 98° East 474 545 41,000  Level Los Angeles Center
09:15PM 33.3656 -115.4008 97° East 475 547 41,000  Level Los Angeles Center
09:16PM 33.3478 -115.2431 98° East 477 549 41,000  Level Los Angeles Center
09:17PM 33.3300 -115.0853 98° East 479 551 41,000  Level Los Angeles Center
09:18PM 33.3125 -114.9250 97° East 487 560 41,000  Level Los Angeles Center
09:19PM 33.2928 -114.7661 98° East 485 558 41,000  Level Los Angeles Center
09:20PM 33.2753 -114.6058 97° East 485 558 41,000  Level Los Angeles Center
09:21PM 33.2578 -114.4475 97° East 482 555 41,000  Level Los Angeles Center
09:22PM 33.2383 -114.2628 97° East 486 559 41,000  Level Albuquerque Center
09:23PM 33.2211 -114.1025 97° East 487 560 41,000  Level Albuquerque Center
09:24PM 33.2017 -113.9417 98° East 489 563 41,000  Level Albuquerque Center
09:25PM 33.1811 -113.7825 99° East 487 560 41,000  Level Albuquerque Center
09:26PM 33.1622 -113.6217 98° East 489 563 41,000  Level Albuquerque Center
09:27PM 33.1419 -113.4614 99° East 488 562 41,000  Level Albuquerque Center
09:28PM 33.1222 -113.3008 98° East 489 563 41,000  Level Albuquerque Center
09:29PM 33.1014 -113.1417 99° East 486 559 41,000  Level Albuquerque Center
09:30PM 33.0811 -112.9806 98° East 487 560 41,000  Level Albuquerque Center
09:31PM 33.0608 -112.8194 98° East 488 562 41,000  Level Albuquerque Center
09:32PM 33.0400 -112.6589 99° East 488 562 41,000  Level Albuquerque Center
09:33PM 33.0153 -112.4683 99° East 484 557 41,000  Level Albuquerque Center
09:34PM 32.9936 -112.3067 99° East 491 565 41,000  Level Albuquerque Center
09:36PM 32.9725 -112.1467 99° East 491 565 41,000  Level Albuquerque Center
09:37PM 32.9511 -111.9875 99° East 490 564 41,000  Level Albuquerque Center
09:38PM 32.9303 -111.8286 99° East 489 563 41,000  Level Albuquerque Center
09:39PM 32.9083 -111.6694 99° East 491 565 41,000  Level Albuquerque Center
09:40PM 32.8861 -111.5117 99° East 488 562 41,000  Level Albuquerque Center
09:41PM 32.8639 -111.3517 99° East 491 565 41,000  Level Albuquerque Center
09:42PM 32.8375 -111.1625 99° East 489 563 41,000  Level Albuquerque Center
09:43PM 32.8150 -111.0033 100° East 490 564 41,000  Level Albuquerque Center
09:44PM 32.7917 -110.8447 100° East 490 564 41,000  Level Albuquerque Center
09:45PM 32.7669 -110.6864 100° East 490 564 41,000  Level Albuquerque Center
09:46PM 32.7433 -110.5181 99° East 494 568 41,000  Level Albuquerque Center
09:47PM 32.7203 -110.3611 100° East 491 565 41,000  Level Albuquerque Center
09:48PM 32.6956 -110.2022 100° East 492 566 41,000  Level Albuquerque Center
09:49PM 32.6722 -110.0436 100° East 494 568 41,000  Level Albuquerque Center
09:50PM 32.6481 -109.8858 100° East 494 568 41,000  Level Albuquerque Center
09:51PM 32.6178 -109.6942 101° East 496 571 41,000  Level Albuquerque Center
09:52PM 32.5911 -109.5328 101° East 502 578 41,000  Level Albuquerque Center
09:53PM 32.5661 -109.3747 101° East 497 572 41,000  Level Albuquerque Center
09:54PM 32.5406 -109.2164 101° East 498 573 41,000  Level Albuquerque Center
09:55PM 32.5161 -109.0564 100° East 500 575 41,000  Level Albuquerque Center
09:56PM 32.4911 -108.8986 101° East 498 573 41,000 -590 Level Albuquerque Center
09:57PM 32.4589 -108.7081 101° East 499 574 39,800 -1,805 Descending Albuquerque Center
09:58PM 32.4331 -108.5489 101° East 499 574 37,300 -2,537 Descending Albuquerque Center
09:59PM 32.4089 -108.3983 101° East 500 575 34,600 -2,115 Descending Albuquerque Center
10:00PM 32.3814 -108.2381 101° East 499 574 33,000 -836 Descending Albuquerque Center
10:01PM 32.3556 -108.0772 101° East 499 574 32,900 -1,317 Descending Albuquerque Center
10:02PM 32.3214 -107.8825 102° East 506 582 30,300 -2,390 Descending Albuquerque Center
10:03PM 32.2956 -107.7264 101° East 493 567 28,000 -2,262 Descending Albuquerque Center
10:04PM 32.2689 -107.5786 102° East 474 545 25,700 -2,262 Descending Albuquerque Center
10:05PM 32.2358 -107.4350 105° East 452 520 23,400 -2,146 Descending Albuquerque Center
10:06PM 32.2011 -107.3028 107° East 434 499 21,300 -2,098 Descending Albuquerque Center
10:07PM 32.1722 -107.1711 104° East 415 478 19,100 -2,170 Descending Albuquerque Center
10:08PM 32.1536 -107.0950 106° East 402 463 17,900 -1,869 Descending Albuquerque Center
10:08PM 32.1450 -107.0542 104° East 405 466 17,200 -2,278 Descending Albuquerque Center
10:09PM 32.1133 -106.9267 106° East 384 442 14,900 -2,357 Descending Albuquerque Center
10:10PM 32.0842 -106.8086 106° East 372 428 12,800 -1,985 Descending Albuquerque Center
10:11PM 32.0547 -106.6844 106° East 356 410 10,500 -1,537 Descending Albuquerque Center
10:12PM 32.0231 -106.5983 113° Southeast 314 361 9,700 -865 Descending Albuquerque Center
10:13PM 31.9908 -106.5136 114° Southeast 297 342 9,000 -658 Descending Albuquerque Center
10:13PM 31.9856 -106.4981 112° Southeast 301 346 8,900 -600 Descending Albuquerque Center
10:14PM 31.9594 -106.4339 116° Southeast 259 298 8,400 -590 Descending Albuquerque Center
10:14PM 31.9553 -106.4194 109° East 263 303 8,300 -984 Descending Albuquerque Center
10:15PM 31.9317 -106.3631 116° Southeast 231 266 7,400 -1,258 Descending Albuquerque Center
10:15PM 31.9275 -106.3492 109° East 239 275 7,000 -900 Descending Albuquerque Center
10:16PM 31.9067 -106.2967 115° Southeast 208 239 6,500 -787 Descending Albuquerque Center
10:16PM 31.8989 -106.2869 133° Southeast 208 239 6,200 -1,091 Descending Albuquerque Center
10:17PM 31.8711 -106.3006 203° Southwest 151 174 5,500 -984 Descending Albuquerque Center
10:17PM 31.8642 -106.3108 231° Southwest 156 180 5,200 -900 Descending Albuquerque Center
10:18PM 31.8478 -106.3364 233° Southwest 135 155 4,600 -787 Descending Albuquerque Center
10:18PM 31.8403 -106.3450 224° Southwest 141 162 4,400 -539 Descending Albuquerque Center
10:19PM 31.8122 -106.3828 229° Southwest 138 159 3,800 -590 Descending Albuquerque Center
10:21PM 31.8072 -106.3764 90° East  Level Estimated
10:28PM 31.8072 -106.3764 90° East  Level Estimated
10:29PM 31.8072 -106.3764 90° East  Level Estimated
10:30PM 31.8072 -106.3764 90° East  Level Estimated
10:31PM 31.8072 -106.3764 90° East  Level Estimated

Login

Don't have an account? Register now (free) for customized features, flight alerts, and more!